Time;durP1;ratioP1;P1;durP2;ratioP2;P2;SDS_P1;SDS_P2;PMS_P1;PMS_P2;Temp;Humidity;BMP_temperature;BMP_pressure;BME280_temperature;BME280_humidity;BME280_pressure;Samples;Min_cycle;Max_cycle;Signal;HPM_P1;HPM_P2
2021/01/09 00:00:16;;;;;;;59.15;22.40;;;;;;;;;;6255235;22;20020;-85
2021/01/09 00:02:45;;;;;;;49.45;21.35;;;;;;;;;;6247745;23;20030;-85
2021/01/09 00:05:13;;;;;;;49.60;24.23;;;1.80;99.90;;;;;;6252043;23;20042;-85
2021/01/09 00:07:42;;;;;;;54.88;21.48;;;;;;;;;;6224146;23;20017;-86
2021/01/09 00:10:10;;;;;;;63.83;23.30;;;;;;;;;;6254096;22;20016;-85
2021/01/09 00:12:41;;;;;;;70.30;23.20;;;;;;;;;;6252249;23;20023;-84
2021/01/09 00:15:11;;;;;;;59.10;23.52;;;;;;;;;;6225665;23;20016;-84
2021/01/09 00:17:41;;;;;;;60.70;23.48;;;;;;;;;;6254101;23;20023;-87
2021/01/09 00:20:14;;;;;;;51.00;22.23;;;1.90;99.90;;;;;;6253613;23;20020;-84
2021/01/09 00:22:43;;;;;;;61.45;21.15;;;;;;;;;;6247229;23;20016;-83
2021/01/09 00:25:16;;;;;;;61.33;24.00;;;2.10;99.90;;;;;;6252470;22;20016;-86
2021/01/09 00:27:52;;;;;;;60.08;26.75;;;;;;;;;;6255407;22;20016;-85
2021/01/09 00:30:21;;;;;;;61.70;25.15;;;;;;;;;;6257509;23;20016;-84
2021/01/09 00:32:50;;;;;;;58.63;21.58;;;;;;;;;;6250467;22;20030;-87
2021/01/09 00:35:18;;;;;;;59.13;29.05;;;;;;;;;;6252608;22;20019;-83
2021/01/09 00:37:47;;;;;;;62.55;20.52;;;;;;;;;;6255017;23;20024;-85
2021/01/09 00:40:15;;;;;;;55.25;20.75;;;;;;;;;;6254046;23;20026;-85
2021/01/09 00:42:50;;;;;;;62.40;21.20;;;;;;;;;;6226758;23;20027;-84
2021/01/09 00:45:42;;;;;;;53.40;21.98;;;1.60;99.90;;;;;;6249345;23;20027;-83
2021/01/09 00:48:13;;;;;;;55.28;21.42;;;;;;;;;;6223846;23;20019;-83
2021/01/09 00:50:41;;;;;;;61.67;24.35;;;;;;;;;;6221721;23;20017;-83
2021/01/09 00:53:09;;;;;;;57.63;23.30;;;;;;;;;;6218478;23;20027;-83
2021/01/09 00:55:39;;;;;;;68.57;24.52;;;;;;;;;;6223059;23;20035;-84
2021/01/09 00:58:07;;;;;;;54.78;22.13;;;;;;;;;;6195851;23;20023;-84
2021/01/09 01:00:36;;;;;;;50.53;21.02;;;;;;;;;;6196985;23;20286;-83
2021/01/09 01:03:09;;;;;;;55.63;24.92;;;;;;;;;;6220517;23;20020;-84
2021/01/09 01:05:41;;;;;;;73.13;26.75;;;;;;;;;;6222236;23;20027;-83
2021/01/09 01:08:09;;;;;;;51.85;20.02;;;;;;;;;;6196083;23;20023;-87
2021/01/09 01:10:37;;;;;;;52.72;21.77;;;;;;;;;;6227804;23;20021;-84
2021/01/09 01:13:07;;;;;;;60.30;21.70;;;;;;;;;;6225605;23;20016;-87
2021/01/09 01:15:35;;;;;;;67.07;23.30;;;;;;;;;;6222432;23;20021;-88
2021/01/09 01:18:03;;;;;;;64.82;25.23;;;;;;;;;;6228480;23;20021;-89
2021/01/09 01:20:31;;;;;;;60.80;23.98;;;;;;;;;;6179133;23;20423;-86
2021/01/09 01:23:00;;;;;;;58.72;23.40;;;;;;;;;;6224455;23;20021;-83
2021/01/09 01:25:29;;;;;;;64.93;26.02;;;;;;;;;;6215767;23;20024;-86
2021/01/09 01:27:57;;;;;;;52.55;19.90;;;;;;;;;;6217827;23;20022;-87
2021/01/09 01:30:25;;;;;;;60.78;23.42;;;;;;;;;;6209674;23;20012;-84
2021/01/09 01:32:57;;;;;;;63.35;22.70;;;;;;;;;;6163266;23;20027;-84
2021/01/09 01:35:25;;;;;;;51.53;21.98;;;;;;;;;;6209827;23;20104;-85
2021/01/09 01:37:52;;;;;;;52.80;19.92;;;;;;;;;;6158067;23;20118;-83
2021/01/09 01:40:24;;;;;;;58.78;20.05;;;2.10;99.90;;;;;;6209704;23;20020;-86
2021/01/09 01:42:52;;;;;;;54.00;23.40;;;2.20;99.90;;;;;;6185642;23;20037;-84
2021/01/09 01:45:20;;;;;;;49.15;18.00;;;;;;;;;;6184316;23;20023;-84
2021/01/09 01:47:47;;;;;;;59.28;21.05;;;;;;;;;;6185875;23;20016;-83
2021/01/09 01:50:15;;;;;;;55.58;21.42;;;2.10;99.90;;;;;;6233224;23;20078;-83
2021/01/09 01:52:43;;;;;;;61.17;23.13;;;;;;;;;;6245626;23;20020;-86
2021/01/09 01:55:12;;;;;;;66.32;24.27;;;;;;;;;;6192003;23;20039;-83
2021/01/09 01:57:42;;;;;;;52.25;19.92;;;2.00;99.90;;;;;;6240224;23;20571;-84
2021/01/09 02:00:10;;;;;;;60.28;19.90;;;;;;;;;;6213430;23;20012;-85
2021/01/09 02:02:40;;;;;;;52.97;18.45;;;;;;;;;;6238435;23;20017;-85
2021/01/09 02:05:09;;;;;;;43.78;16.15;;;2.00;99.90;;;;;;6240627;22;20016;-85
2021/01/09 02:07:41;;;;;;;48.03;18.65;;;2.10;99.90;;;;;;6213172;23;20020;-87
2021/01/09 02:10:09;;;;;;;45.90;18.35;;;2.00;99.90;;;;;;6189769;23;20042;-84
2021/01/09 02:12:48;;;;;;;46.22;18.83;;;;;;;;;;6215977;23;20024;-84
2021/01/09 02:15:17;;;;;;;63.38;19.40;;;2.00;99.90;;;;;;6214205;23;20019;-84
2021/01/09 02:17:45;;;;;;;42.20;16.80;;;;;;;;;;6243033;23;20322;-85
2021/01/09 02:20:14;;;;;;;50.50;18.35;;;;;;;;;;6238762;23;20613;-86
2021/01/09 02:22:43;;;;;;;52.05;17.83;;;;;;;;;;6239582;23;20016;-84
2021/01/09 02:25:11;;;;;;;37.97;16.13;;;2.00;99.90;;;;;;6244631;23;20504;-84
2021/01/09 02:27:40;;;;;;;52.13;16.80;;;;;;;;;;6244618;23;20016;-83
2021/01/09 02:30:13;;;;;;;56.83;16.25;;;;;;;;;;6241909;22;20020;-84
2021/01/09 02:33:10;;;;;;;41.47;15.73;;;2.10;99.90;;;;;;6241952;22;20027;-85
2021/01/09 02:35:40;;;;;;;44.97;13.95;;;1.90;99.90;;;;;;6269960;22;20462;-83
2021/01/09 02:38:09;;;;;;;44.40;16.88;;;1.90;99.90;;;;;;6241660;23;20012;-83
2021/01/09 02:40:40;;;;;;;53.55;18.48;;;1.90;99.90;;;;;;6217453;23;20047;-84
2021/01/09 02:43:13;;;;;;;41.40;16.63;;;1.90;99.90;;;;;;6243777;22;20028;-84
2021/01/09 02:45:41;;;;;;;;;;;2.00;99.90;;;;;;6244989;22;20440;-84
2021/01/09 02:48:10;;;;;;;36.97;13.73;;;;;;;;;;6269781;22;20228;-83
2021/01/09 02:50:41;;;;;;;43.65;14.30;;;;;;;;;;6218727;23;20046;-85
2021/01/09 02:53:09;;;;;;;28.38;12.50;;;;;;;;;;6219420;23;20613;-84
2021/01/09 02:55:37;;;;;;;40.28;15.77;;;;;;;;;;6242555;23;20027;-85
2021/01/09 02:58:07;;;;;;;48.78;16.10;;;;;;;;;;6221724;23;20012;-86
2021/01/09 03:00:34;;;;;;;57.25;16.65;;;;;;;;;;6220240;23;20020;-84
2021/01/09 03:03:02;;;;;;;49.25;15.30;;;;;;;;;;6196718;23;20024;-86
2021/01/09 03:05:30;;;;;;;53.40;16.63;;;;;;;;;;6245826;23;20027;-84
2021/01/09 03:07:58;;;;;;;59.10;18.13;;;;;;;;;;6229718;23;20020;-84
2021/01/09 03:10:27;;;;;;;57.10;18.38;;;;;;;;;;6247992;23;20024;-84
2021/01/09 03:12:55;;;;;;;44.28;14.77;;;;;;;;;;6223745;23;20039;-84
2021/01/09 03:15:24;;;;;;;42.65;17.15;;;;;;;;;;6222534;23;20012;-84
2021/01/09 03:17:53;;;;;;;47.03;15.77;;;;;;;;;;6221275;23;20031;-85
2021/01/09 03:20:21;;;;;;;38.70;18.08;;;;;;;;;;6249738;23;20016;-84
2021/01/09 03:22:49;;;;;;;57.10;15.98;;;;;;;;;;6221307;23;20036;-84
2021/01/09 03:25:17;;;;;;;48.00;15.48;;;;;;;;;;6246331;23;20026;-85
2021/01/09 03:27:44;;;;;;;48.40;17.50;;;;;;;;;;6220120;23;20012;-86
2021/01/09 03:30:13;;;;;;;56.28;17.45;;;;;;;;;;6221983;23;20028;-83
2021/01/09 03:32:41;;;;;;;56.15;17.77;;;;;;;;;;6247067;22;20016;-85
2021/01/09 03:35:08;;;;;;;69.15;16.67;;;;;;;;;;6219449;23;20027;-87
2021/01/09 03:37:36;;;;;;;78.45;18.85;;;;;;;;;;6246638;23;20076;-87
2021/01/09 03:40:04;;;;;;;47.88;15.10;;;2.00;99.90;;;;;;6217676;23;20027;-83
2021/01/09 03:42:33;;;;;;;42.03;18.67;;;;;;;;;;6219791;23;20012;-85
2021/01/09 03:45:03;;;;;;;50.03;16.35;;;;;;;;;;6223006;23;20016;-84
2021/01/09 03:47:30;;;;;;;36.50;15.23;;;;;;;;;;6245598;23;20024;-83
2021/01/09 03:49:58;;;;;;;33.25;15.50;;;;;;;;;;6247442;23;20047;-82
2021/01/09 03:52:26;;;;;;;37.25;14.52;;;;;;;;;;6247304;23;20023;-83
2021/01/09 03:54:55;;;;;;;34.28;13.40;;;;;;;;;;6221752;23;20016;-88
2021/01/09 03:57:23;;;;;;;37.53;15.35;;;;;;;;;;6254426;23;20467;-85
2021/01/09 03:59:51;;;;;;;45.47;16.00;;;;;;;;;;6223904;23;20042;-84
2021/01/09 04:02:20;;;;;;;56.63;15.23;;;;;;;;;;6223084;23;20016;-82
2021/01/09 04:04:49;;;;;;;51.08;14.80;;;;;;;;;;6223095;23;20020;-83
2021/01/09 04:07:17;;;;;;;38.97;13.90;;;;;;;;;;6217365;23;20020;-83
2021/01/09 04:09:44;;;;;;;34.22;13.32;;;;;;;;;;6249644;23;20020;-84
2021/01/09 04:12:12;;;;;;;34.05;12.63;;;;;;;;;;6247236;23;20035;-83
2021/01/09 04:14:42;;;;;;;26.85;14.13;;;;;;;;;;6222993;23;20023;-84
2021/01/09 04:17:11;;;;;;;33.38;11.93;;;;;;;;;;6248188;23;20024;-85
2021/01/09 04:19:39;;;;;;;40.88;14.55;;;;;;;;;;6194969;23;20470;-86
2021/01/09 04:22:09;;;;;;;36.42;11.85;;;;;;;;;;6249728;23;20016;-83
2021/01/09 04:24:39;;;;;;;35.45;16.35;;;;;;;;;;6222492;23;20020;-85
2021/01/09 04:27:06;;;;;;;34.17;14.88;;;;;;;;;;6222756;23;20031;-85
2021/01/09 04:29:38;;;;;;;35.30;16.38;;;;;;;;;;6225642;23;20027;-83
2021/01/09 04:32:06;;;;;;;40.35;15.48;;;;;;;;;;6199109;22;20024;-83
2021/01/09 04:34:34;;;;;;;41.28;13.43;;;;;;;;;;6194018;23;20020;-85
2021/01/09 04:37:02;;;;;;;35.35;13.60;;;;;;;;;;6250831;23;20020;-83
2021/01/09 04:39:30;;;;;;;30.75;12.52;;;;;;;;;;6220524;23;20024;-83
2021/01/09 04:41:58;;;;;;;30.80;12.32;;;;;;;;;;6247378;23;20016;-84
2021/01/09 04:44:25;;;;;;;29.45;11.40;;;;;;;;;;6258329;23;20008;-85
2021/01/09 04:46:54;;;;;;;25.27;9.90;;;1.80;99.90;;;;;;6234623;23;20020;-83
2021/01/09 04:49:28;;;;;;;23.30;11.43;;;2.00;99.90;;;;;;6208197;23;20038;-83
2021/01/09 04:52:02;;;;;;;26.70;13.00;;;2.10;99.90;;;;;;6255373;23;20016;-84
2021/01/09 04:54:32;;;;;;;25.95;11.30;;;2.10;99.90;;;;;;6247710;23;20026;-84
2021/01/09 04:57:00;;;;;;;29.10;11.00;;;;;;;;;;6249545;23;20024;-86
2021/01/09 04:59:29;;;;;;;30.60;12.52;;;;;;;;;;6247065;23;20022;-85
2021/01/09 05:01:58;;;;;;;33.05;11.85;;;2.00;99.90;;;;;;6248720;23;20039;-82
2021/01/09 05:04:27;;;;;;;24.80;11.25;;;;;;;;;;6224663;23;20026;-85
2021/01/09 05:06:54;;;;;;;40.90;14.05;;;;;;;;;;6226734;23;20022;-85
2021/01/09 05:09:22;;;;;;;33.65;12.73;;;;;;;;;;6250588;23;20344;-85
2021/01/09 05:11:56;;;;;;;25.20;12.68;;;;;;;;;;6227392;23;20019;-85
2021/01/09 05:14:23;;;;;;;31.42;13.77;;;;;;;;;;6221989;23;20027;-88
2021/01/09 05:16:51;;;;;;;42.58;15.10;;;;;;;;;;6227765;23;20016;-86
2021/01/09 05:19:20;;;;;;;39.90;12.65;;;;;;;;;;6224647;23;20024;-82
2021/01/09 05:21:48;;;;;;;28.73;13.07;;;;;;;;;;6176156;23;20024;-84
2021/01/09 05:24:19;;;;;;;31.23;14.52;;;;;;;;;;6249392;23;20031;-84
2021/01/09 05:26:47;;;;;;;27.23;14.55;;;2.20;99.90;;;;;;6253299;23;20034;-84
2021/01/09 05:29:16;;;;;;;31.92;14.15;;;2.10;99.90;;;;;;6252561;23;20020;-85
2021/01/09 05:31:44;;;;;;;29.13;11.55;;;;;;;;;;6254773;23;20019;-89
2021/01/09 05:34:15;;;;;;;;;;;2.20;99.90;;;;;;6223695;23;20024;-84
2021/01/09 05:36:43;;;;;;;33.38;15.30;;;;;;;;;;6254430;23;19915;-87
2021/01/09 05:39:11;;;;;;;34.83;13.70;;;;;;;;;;6248037;23;20348;-85
2021/01/09 05:41:42;;;;;;;33.53;14.10;;;2.10;99.90;;;;;;6249507;23;20467;-86
2021/01/09 05:44:12;;;;;;;28.60;13.73;;;;;;;;;;6253222;23;20024;-85
2021/01/09 05:46:41;;;;;;;31.38;13.70;;;;;;;;;;6255226;23;20039;-83
2021/01/09 05:49:12;;;;;;;26.00;12.50;;;;;;;;;;6200028;23;20028;-84
2021/01/09 05:51:40;;;;;;;30.58;13.07;;;;;;;;;;6255098;23;20018;-84
2021/01/09 05:54:08;;;;;;;34.13;13.43;;;;;;;;;;6229032;23;20020;-84
2021/01/09 05:56:42;;;;;;;36.13;15.07;;;2.40;99.90;;;;;;6204947;23;20548;-83
2021/01/09 05:59:11;;;;;;;32.50;13.70;;;;;;;;;;6253831;23;20016;-84
2021/01/09 06:01:43;;;;;;;34.92;13.60;;;2.20;99.90;;;;;;6198338;23;20026;-86
2021/01/09 06:04:20;;;;;;;33.63;14.57;;;2.10;99.90;;;;;;6225018;23;20016;-85
2021/01/09 06:06:54;;;;;;;41.60;14.30;;;;;;;;;;6222000;23;20038;-86
2021/01/09 06:09:25;;;;;;;37.53;15.73;;;2.20;99.90;;;;;;6220123;23;20020;-87
2021/01/09 06:11:56;;;;;;;34.78;15.80;;;2.30;99.90;;;;;;6247203;23;20344;-83
2021/01/09 06:14:27;;;;;;;39.28;15.45;;;;;;;;;;6252433;23;20020;-83
2021/01/09 06:16:55;;;;;;;32.33;14.40;;;;;;;;;;6247871;23;20012;-86
2021/01/09 06:19:23;;;;;;;27.92;12.50;;;;;;;;;;6224416;23;20332;-84
2021/01/09 06:21:56;;;;;;;25.58;10.38;;;;;;;;;;6251698;23;20020;-83
2021/01/09 06:24:24;;;;;;;32.17;14.90;;;;;;;;;;6251163;23;20020;-89
2021/01/09 06:26:52;;;;;;;25.60;10.98;;;2.30;99.90;;;;;;6248868;23;20583;-86
2021/01/09 06:29:29;;;;;;;24.73;11.02;;;2.50;99.90;;;;;;6254062;23;20017;-89
2021/01/09 06:32:04;;;;;;;31.88;12.48;;;2.30;99.90;;;;;;6253107;22;20016;-87
2021/01/09 06:34:34;;;;;;;33.65;13.25;;;;;;;;;;6257410;23;20043;-86
2021/01/09 06:37:05;;;;;;;29.95;13.10;;;2.30;99.90;;;;;;6225035;23;20020;-84
2021/01/09 06:39:34;;;;;;;31.02;12.43;;;2.30;99.90;;;;;;6200918;23;20030;-87
2021/01/09 06:42:08;;;;;;;30.35;11.88;;;2.20;99.90;;;;;;6254882;23;20013;-87
2021/01/09 06:44:42;;;;;;;28.08;13.02;;;;;;;;;;6233265;23;20026;-87
2021/01/09 06:47:24;;;;;;;41.35;13.95;;;2.10;99.90;;;;;;6229796;23;20018;-90
2021/01/09 06:49:52;;;;;;;25.42;11.75;;;;;;;;;;6224050;23;20448;-88
2021/01/09 06:52:57;;;;;;;20.55;9.68;;;2.10;99.90;;;;;;6229953;23;20019;-84
2021/01/09 06:55:41;;;;;;;28.33;11.40;;;;;;;;;;6235153;23;20308;-86
2021/01/09 06:58:10;;;;;;;27.20;11.15;;;;;;;;;;6228364;23;20031;-89
2021/01/09 07:00:37;;;;;;;25.05;11.13;;;;;;;;;;6227777;23;20026;-86
2021/01/09 07:03:13;;;;;;;31.13;13.48;;;2.00;99.90;;;;;;6254107;23;20024;-90
2021/01/09 07:05:47;;;;;;;26.92;12.20;;;;;;;;;;6232218;23;20028;-87
2021/01/09 07:08:32;;;;;;;31.83;12.02;;;2.00;99.90;;;;;;6230343;23;20038;-84
2021/01/09 07:11:06;;;;;;;26.92;11.48;;;1.90;99.90;;;;;;6253590;23;20016;-88
2021/01/09 07:13:34;;;;;;;32.83;12.00;;;;;;;;;;6257767;23;20008;-92
2021/01/09 07:16:06;;;;;;;27.20;13.63;;;;;;;;;;6235564;23;20448;-91
2021/01/09 07:18:38;;;;;;;34.83;14.00;;;;;;;;;;6260601;22;20063;-88
2021/01/09 07:21:09;;;;;;;25.42;10.82;;;1.80;99.90;;;;;;6294353;22;20019;-90
2021/01/09 07:23:37;;;;;;;;;;;1.80;99.90;;;;;;6326498;22;20034;-87
2021/01/09 07:26:05;;;;;;;30.60;12.55;;;1.90;99.90;;;;;;6270116;22;19915;-88
2021/01/09 07:28:34;;;;;;;33.63;13.07;;;2.00;99.90;;;;;;6288847;22;20462;-85
2021/01/09 07:31:13;;;;;;;34.63;14.85;;;1.80;99.90;;;;;;6307962;22;20023;-85
2021/01/09 07:33:45;;;;;;;34.47;13.75;;;;;;;;;;6307519;22;20034;-84
2021/01/09 07:36:14;;;;;;;29.52;11.43;;;;;;;;;;6284164;22;20019;-84
2021/01/09 07:38:47;;;;;;;27.50;13.05;;;1.90;99.90;;;;;;6309887;22;20466;-85
2021/01/09 07:41:34;;;;;;;34.35;12.73;;;1.80;99.90;;;;;;6305822;22;20789;-83
2021/01/09 07:44:16;;;;;;;30.75;14.73;;;1.80;99.90;;;;;;6281686;22;20029;-91
2021/01/09 07:46:49;;;;;;;31.27;13.63;;;;;;;;;;6311345;22;20030;-89
2021/01/09 07:49:36;;;;;;;37.45;18.33;;;1.70;99.90;;;;;;6281476;22;20015;-83
2021/01/09 07:52:06;;;;;;;36.95;14.32;;;1.80;99.90;;;;;;6301505;22;20026;-83
2021/01/09 07:54:43;;;;;;;29.20;11.45;;;1.80;99.90;;;;;;6255713;22;20011;-83
2021/01/09 07:57:26;;;;;;;34.60;14.77;;;1.80;99.90;;;;;;6303421;22;20343;-89
2021/01/09 07:59:54;;;;;;;31.42;13.77;;;;;;;;;;6308126;22;20173;-82
2021/01/09 08:02:25;;;;;;;28.08;13.52;;;1.80;99.90;;;;;;6277104;22;20019;-85
2021/01/09 08:05:03;;;;;;;31.77;13.00;;;;;;;;;;6308646;22;20343;-87
2021/01/09 08:07:37;;;;;;;32.75;13.50;;;1.70;99.90;;;;;;6308264;22;20066;-85
2021/01/09 08:10:17;;;;;;;34.38;14.70;;;;;;;;;;6306575;22;20132;-89
2021/01/09 08:13:10;;;;;;;34.72;14.13;;;1.70;99.90;;;;;;6307561;22;20473;-87
2021/01/09 08:15:39;;;;;;;30.67;13.48;;;;;;;;;;6278397;22;20023;-84
2021/01/09 08:18:09;;;;;;;38.07;17.33;;;;;;;;;;6283295;22;20440;-84
2021/01/09 08:20:39;;;;;;;48.83;16.42;;;;;;;;;;6304149;22;20030;-83
2021/01/09 08:23:08;;;;;;;39.72;16.38;;;1.60;99.90;;;;;;6305677;22;20493;-84
2021/01/09 08:25:42;;;;;;;36.65;16.00;;;1.60;99.90;;;;;;6310225;22;20603;-84
2021/01/09 08:28:11;;;;;;;41.20;18.92;;;;;;;;;;6309999;22;20015;-84
2021/01/09 08:30:41;;;;;;;36.67;16.63;;;;;;;;;;6311372;22;20023;-87
2021/01/09 08:33:13;;;;;;;35.22;15.18;;;1.80;99.90;;;;;;6308699;22;20489;-83
2021/01/09 08:35:52;;;;;;;37.08;15.40;;;;;;;;;;6304188;22;20320;-87
2021/01/09 08:38:28;;;;;;;31.33;13.85;;;1.60;99.90;;;;;;6310145;22;20025;-82
2021/01/09 08:40:59;;;;;;;39.42;14.68;;;1.60;99.90;;;;;;6310890;22;20023;-84
2021/01/09 08:43:29;;;;;;;33.88;12.32;;;;;;;;;;6308370;22;20343;-87
2021/01/09 08:45:57;;;;;;;31.85;13.43;;;;;;;;;;6307523;22;20019;-85
2021/01/09 08:48:27;;;;;;;32.03;14.38;;;1.60;99.90;;;;;;6314272;22;20019;-83
2021/01/09 08:51:14;;;;;;;30.95;14.60;;;1.70;99.90;;;;;;6308644;22;20023;-83
2021/01/09 08:53:54;;;;;;;37.08;13.70;;;;;;;;;;6305332;22;20457;-85
2021/01/09 08:56:23;;;;;;;36.40;16.53;;;;;;;;;;6304986;22;20015;-85
2021/01/09 08:58:52;;;;;;;42.15;16.25;;;1.80;99.90;;;;;;6309446;22;20248;-85
2021/01/09 09:01:26;;;;;;;34.85;14.73;;;1.70;99.90;;;;;;6256329;22;20505;-91
2021/01/09 09:03:59;;;;;;;35.33;14.10;;;1.70;99.90;;;;;;6311117;22;20074;-87
2021/01/09 09:06:32;;;;;;;34.50;15.38;;;1.80;99.90;;;;;;6280424;22;20019;-84
2021/01/09 09:09:02;;;;;;;33.50;13.68;;;;;;;;;;6280455;22;20027;-84
2021/01/09 09:11:30;;;;;;;35.17;16.05;;;;;;;;;;6314921;22;20023;-85
2021/01/09 09:14:07;;;;;;;36.83;15.68;;;1.70;99.90;;;;;;6309899;22;20400;-83
2021/01/09 09:16:36;;;;;;;34.17;15.73;;;;;;;;;;6315713;22;20022;-85
2021/01/09 09:19:12;;;;;;;30.10;12.95;;;1.70;99.90;;;;;;6313052;22;20034;-83
2021/01/09 09:21:46;;;;;;;31.95;14.57;;;1.70;99.90;;;;;;6284667;22;20046;-84
2021/01/09 09:24:16;;;;;;;34.90;14.90;;;;;;;;;;6310770;22;20324;-83
2021/01/09 09:26:45;;;;;;;31.90;14.23;;;;;;;;;;6308058;22;20030;-84
2021/01/09 09:29:16;;;;;;;34.60;13.63;;;;;;;;;;6284726;22;20011;-83
2021/01/09 09:31:48;;;;;;;39.85;14.02;;;;;;;;;;6284929;22;20031;-85
2021/01/09 09:34:17;;;;;;;30.80;13.82;;;;;;;;;;6307045;22;20015;-83
2021/01/09 09:36:48;;;;;;;30.27;13.48;;;;;;;;;;6308721;22;20015;-84
2021/01/09 09:39:22;;;;;;;27.77;12.20;;;;;;;;;;6309233;22;20012;-87
2021/01/09 09:41:54;;;;;;;34.88;14.75;;;1.70;99.90;;;;;;6282520;22;20033;-83
2021/01/09 09:44:35;;;;;;;30.15;14.95;;;;;;;;;;6307371;22;20339;-84
2021/01/09 09:47:06;;;;;;;36.22;14.65;;;2.10;99.90;;;;;;6309831;22;20023;-83
2021/01/09 09:49:43;;;;;;;29.33;12.32;;;1.90;99.90;;;;;;6284835;22;20015;-83
2021/01/09 09:52:16;;;;;;;27.55;12.27;;;1.90;99.90;;;;;;6310313;22;20320;-84
2021/01/09 09:54:45;;;;;;;30.83;13.75;;;;;;;;;;6284503;22;20169;-84
2021/01/09 09:57:20;;;;;;;32.17;13.70;;;1.90;99.90;;;;;;6284414;22;20022;-84
2021/01/09 10:00:15;;;;;;;35.00;13.85;;;;;;;;;;6311501;22;20023;-83
2021/01/09 10:02:55;;;;;;;34.10;17.52;;;1.70;99.90;;;;;;6313625;22;20021;-85
2021/01/09 10:05:27;;;;;;;41.83;13.35;;;;;;;;;;6311008;22;20019;-87
2021/01/09 10:08:12;;;;;;;32.88;13.55;;;2.10;99.90;;;;;;6309146;22;20019;-84
2021/01/09 10:10:50;;;;;;;30.20;13.93;;;;;;;;;;6312882;22;20023;-85
2021/01/09 10:13:25;;;;;;;37.17;14.68;;;1.90;99.90;;;;;;6286406;22;20019;-87
2021/01/09 10:15:56;;;;;;;35.97;15.35;;;1.90;99.90;;;;;;6308908;22;20019;-86
2021/01/09 10:18:26;;;;;;;30.90;14.32;;;;;;;;;;6310545;22;20029;-86
2021/01/09 10:20:54;;;;;;;32.05;14.32;;;;;;;;;;6309745;22;20070;-84
2021/01/09 10:23:25;;;;;;;38.00;17.10;;;;;;;;;;6310984;22;20027;-85
2021/01/09 10:25:55;;;;;;;31.98;16.58;;;;;;;;;;6311170;22;20022;-88
2021/01/09 10:28:25;;;;;;;32.50;14.05;;;;;;;;;;6285641;22;20037;-83
2021/01/09 10:30:58;;;;;;;33.43;14.13;;;;;;;;;;6314577;22;20015;-84
2021/01/09 10:33:30;;;;;;;30.92;14.70;;;;;;;;;;6284584;22;20244;-84
2021/01/09 10:36:05;;;;;;;34.28;13.52;;;1.90;99.90;;;;;;6312200;22;20023;-84
2021/01/09 10:38:35;;;;;;;34.03;14.20;;;;;;;;;;6286994;22;20012;-83
2021/01/09 10:41:03;;;;;;;35.90;15.70;;;;;;;;;;6310741;22;20027;-85
2021/01/09 10:43:35;;;;;;;38.40;15.77;;;;;;;;;;6310316;22;20474;-84
2021/01/09 10:46:06;;;;;;;39.60;18.85;;;;;;;;;;6312689;22;20019;-83
2021/01/09 10:48:36;;;;;;;33.80;18.15;;;;;;;;;;6310592;22;20511;-87
2021/01/09 10:51:04;;;;;;;45.35;17.63;;;;;;;;;;6308575;22;20119;-86
2021/01/09 10:53:33;;;;;;;41.00;15.05;;;;;;;;;;6311691;22;20011;-85
2021/01/09 10:56:03;;;;;;;35.92;14.85;;;;;;;;;;6310550;22;20476;-84
2021/01/09 10:58:30;;;;;;;38.42;16.83;;;;;;;;;;6284823;22;20019;-84
2021/01/09 11:00:59;;;;;;;33.65;15.05;;;;;;;;;;6310048;22;20017;-89
2021/01/09 11:03:27;;;;;;;37.88;15.57;;;;;;;;;;6311242;22;20347;-86
2021/01/09 11:05:56;;;;;;;34.22;16.23;;;;;;;;;;6311737;22;20023;-84
2021/01/09 11:08:25;;;;;;;35.45;15.40;;;;;;;;;;6310117;22;20012;-85
2021/01/09 11:10:53;;;;;;;38.75;16.60;;;;;;;;;;6285815;22;20026;-85
2021/01/09 11:13:31;;;;;;;32.67;17.17;;;;;;;;;;6312896;22;20015;-85
2021/01/09 11:16:01;;;;;;;39.55;15.27;;;;;;;;;;6311896;22;20443;-84
2021/01/09 11:18:29;;;;;;;43.30;18.13;;;;;;;;;;6312508;22;20019;-84
2021/01/09 11:21:03;;;;;;;33.92;15.18;;;;;;;;;;6316233;22;20248;-84
2021/01/09 11:23:32;;;;;;;36.10;16.20;;;;;;;;;;6317350;22;20024;-84
2021/01/09 11:26:04;;;;;;;35.30;15.20;;;;;;;;;;6313294;22;20021;-86
2021/01/09 11:28:35;;;;;;;42.03;19.13;;;;;;;;;;6318340;22;20026;-85
2021/01/09 11:31:16;;;;;;;41.15;17.50;;;2.70;99.90;;;;;;6313156;22;20023;-86
2021/01/09 11:33:49;;;;;;;40.13;16.95;;;;;;;;;;6286110;22;20474;-84
2021/01/09 11:36:18;;;;;;;32.65;16.70;;;;;;;;;;6308270;22;20026;-84
2021/01/09 11:38:48;;;;;;;32.35;17.00;;;2.90;99.90;;;;;;6263392;22;20022;-88
2021/01/09 11:41:19;;;;;;;35.30;15.30;;;;;;;;;;6317870;22;20016;-86
2021/01/09 11:43:48;;;;;;;;;;;2.60;99.90;;;;;;6266433;22;20525;-86
2021/01/09 11:46:17;;;;;;;35.78;16.42;;;;;;;;;;6314892;22;20508;-88
2021/01/09 11:48:47;;;;;;;35.63;14.85;;;;;;;;;;6316135;22;20019;-86
2021/01/09 11:51:26;;;;;;;40.22;19.42;;;3.00;99.90;;;;;;6314686;22;20065;-86
2021/01/09 11:54:01;;;;;;;31.38;16.30;;;;;;;;;;6314661;22;20019;-86
2021/01/09 11:56:37;;;;;;;32.90;14.65;;;;;;;;;;6265371;22;20134;-86
2021/01/09 11:59:10;;;;;;;35.15;17.23;;;;;;;;;;6292585;22;20015;-86
2021/01/09 12:01:47;;;;;;;31.20;12.88;;;;;;;;;;6318492;22;20447;-88
2021/01/09 12:04:21;;;;;;;31.17;13.38;;;;;;;;;;6293217;22;20065;-87
2021/01/09 12:06:57;;;;;;;31.13;14.10;;;;;;;;;;6317396;22;20027;-87
2021/01/09 12:09:27;;;;;;;33.83;14.32;;;;;;;;;;6314350;22;20011;-87
2021/01/09 12:12:06;;;;;;;34.10;15.27;;;;;;;;;;6323893;22;20033;-87
2021/01/09 12:14:41;;;;;;;25.95;12.50;;;;;;;;;;6261820;22;20635;-88
2021/01/09 12:17:14;;;;;;;36.90;14.05;;;3.10;99.90;;;;;;6293055;22;20028;-88
2021/01/09 12:20:12;;;;;;;36.00;15.38;;;3.00;99.90;;;;;;6294444;22;20034;-89
2021/01/09 12:22:41;;;;;;;30.92;14.40;;;;;;;;;;6244931;22;20022;-90
2021/01/09 12:25:25;;;;;;;34.92;15.05;;;;;;;;;;6245488;22;20034;-90
2021/01/09 12:27:55;;;;;;;32.35;16.20;;;;;;;;;;6293000;22;20034;-87
2021/01/09 12:30:24;;;;;;;37.25;14.27;;;;;;;;;;6244462;22;20020;-90
2021/01/09 12:32:55;;;;;;;37.03;15.35;;;;;;;;;;6291428;22;20428;-90
2021/01/09 12:35:31;;;;;;;33.45;12.73;;;3.20;99.90;;;;;;6290023;22;20026;-90
2021/01/09 12:38:07;;;;;;;32.30;15.98;;;;;;;;;;6292182;22;20030;-89
2021/01/09 12:40:40;;;;;;;35.95;13.98;;;;;;;;;;6293746;22;20000;-89
2021/01/09 12:43:13;;;;;;;27.05;14.40;;;;;;;;;;6295867;22;20029;-86
2021/01/09 12:45:48;;;;;;;37.13;17.50;;;;;;;;;;6271198;22;20023;-88
2021/01/09 12:48:23;;;;;;;32.65;14.52;;;;;;;;;;6296226;22;20015;-88
2021/01/09 12:50:57;;;;;;;37.38;15.18;;;3.50;99.90;;;;;;6298286;22;20004;-90
2021/01/09 12:53:29;;;;;;;31.60;15.18;;;;;;;;;;6248603;22;20018;-87
2021/01/09 12:56:07;;;;;;;38.17;18.47;;;3.50;99.90;;;;;;6299788;22;20023;-88
2021/01/09 12:58:55;;;;;;;40.80;17.50;;;;;;;;;;6277517;22;20237;-89
2021/01/09 13:01:47;;;;;;;32.50;14.57;;;3.50;99.90;;;;;;6292251;22;20044;-89
2021/01/09 13:04:20;;;;;;;35.25;13.77;;;;;;;;;;6241329;22;20022;-86
2021/01/09 13:06:57;;;;;;;29.90;14.18;;;;;;;;;;6242880;22;20016;-90
2021/01/09 13:09:36;;;;;;;40.03;15.68;;;;;;;;;;6291002;22;20020;-91
2021/01/09 13:12:15;;;;;;;31.50;12.52;;;;;;;;;;6260809;22;20023;-88
2021/01/09 13:15:01;;;;;;;35.45;15.63;;;;;;;;;;6242322;22;20024;-91
2021/01/09 13:17:38;;;;;;;28.60;12.85;;;;;;;;;;6287928;22;20028;-90
2021/01/09 13:20:11;;;;;;;27.40;13.80;;;;;;;;;;6230520;22;20016;-90
2021/01/09 13:22:41;;;;;;;34.65;15.57;;;;;;;;;;6267116;22;20022;-90
2021/01/09 13:25:11;;;;;;;35.42;15.20;;;;;;;;;;6288077;22;20019;-90
2021/01/09 13:27:46;;;;;;;44.47;15.73;;;;;;;;;;6285278;22;20008;-89
2021/01/09 13:30:14;;;;;;;43.63;17.25;;;;;;;;;;6284296;22;20024;-91
2021/01/09 13:32:46;;;;;;;35.45;16.58;;;;;;;;;;6284674;22;20335;-88
2021/01/09 13:35:16;;;;;;;38.28;16.48;;;3.60;99.90;;;;;;6278989;22;20022;-89
2021/01/09 13:37:44;;;;;;;36.45;14.43;;;;;;;;;;6284033;22;20335;-87
2021/01/09 13:40:23;;;;;;;29.08;13.45;;;;;;;;;;6259469;22;20015;-90
2021/01/09 13:42:52;;;;;;;30.45;12.50;;;;;;;;;;6287175;22;20027;-90
2021/01/09 13:45:22;;;;;;;27.00;12.40;;;;;;;;;;6262496;22;20535;-91
2021/01/09 13:47:54;;;;;;;29.52;11.85;;;;;;;;;;6287030;22;20015;-91
2021/01/09 13:50:25;;;;;;;31.77;14.32;;;;;;;;;;6264891;22;20033;-90
2021/01/09 13:52:54;;;;;;;37.65;15.88;;;;;;;;;;6284742;22;20020;-90
2021/01/09 13:55:26;;;;;;;34.58;16.17;;;4.30;99.90;;;;;;6265445;22;20043;-89
2021/01/09 13:57:56;;;;;;;33.65;13.85;;;;;;;;;;6269383;22;20010;-90
2021/01/09 14:00:26;;;;;;;23.40;11.77;;;;;;;;;;6293900;22;20026;-87
2021/01/09 14:03:02;;;;;;;37.08;15.35;;;;;;;;;;6291187;22;20020;-87
2021/01/09 14:05:34;;;;;;;30.23;14.30;;;;;;;;;;6294061;22;20034;-89
2021/01/09 14:08:18;;;;;;;34.05;15.50;;;;;;;;;;6268099;22;20022;-89
2021/01/09 14:11:02;;;;;;;31.52;14.63;;;;;;;;;;6289877;22;20015;-90